Latest Weather Observations for Brisbane

IDQ60801

Issued at 9:02 pm EST Saturday 22 July 2017 (issued every 30 minutes, with the page automatically refreshed every 10 minutes)

About weather observations | Map of weather stations | Latest weather observations for QLD | Other Formats
Station Details ID: 040913 Name: BRISBANE Lat: -27.48 Lon: 153.04 Height: 8.13 m
Data from the previous 72 hours. | See also: Recent months at Brisbane
Date/Time
EST
Temp
°C
App
Temp
°C
Dew
Point
°C
Rel
Hum
%
Delta-T
°C
Wind Press
QNH
hPa
Press
MSL
hPa
Rain since
9am
mm
Dir  Spd
km/h
Gust
km/h
Spd
kts
Gust
kts
22/09:00pm 10.9 10.6 8.7 86 1.1 CALM 0 0 0 0 - 1022.1 0.0
22/08:30pm 11.6 11.5 9.3 86 1.1 CALM 0 0 0 0 1021.9 1021.9 0.0
22/08:00pm 11.7 11.5 8.9 83 1.4 CALM 0 0 0 0 1021.7 1021.7 0.0
22/07:30pm 12.3 12.1 9.0 80 1.7 CALM 0 0 0 0 1021.5 1021.5 0.0
22/07:00pm 12.7 12.3 8.4 75 2.1 CALM 0 0 0 0 1021.3 1021.3 0.0
22/06:30pm 13.6 13.2 8.2 70 2.7 CALM 0 0 0 0 1021.0 1021.0 0.0
22/06:00pm 14.4 13.9 7.9 65 3.2 CALM 0 0 0 0 1020.7 1020.7 0.0
22/05:30pm 16.2 15.6 7.4 56 4.4 CALM 0 2 0 1 1020.6 1020.6 0.0
22/05:00pm 18.1 16.8 7.8 51 5.2 NNE 4 7 2 4 1020.5 1020.5 0.0
22/04:30pm 19.5 17.8 7.6 46 6.1 NE 6 9 3 5 1020.3 1020.3 0.0
22/04:00pm 20.4 18.7 7.4 43 6.6 NE 6 9 3 5 1020.2 1020.2 0.0
22/03:30pm 20.9 19.2 6.1 38 7.4 NE 4 7 2 4 1020.2 1020.2 0.0
22/03:00pm 20.8 18.9 6.7 40 7.1 ENE 6 9 3 5 1020.3 1020.3 0.0
22/02:30pm 21.4 20.3 6.9 39 7.4 N 2 4 1 2 1020.6 1020.6 0.0
22/02:00pm 21.0 19.4 6.5 39 7.3 ENE 4 9 2 5 1020.9 1020.9 0.0
22/01:30pm 21.1 20.2 7.7 42 6.9 SW 2 6 1 3 1021.2 1021.2 0.0
22/01:00pm 20.0 18.3 6.0 40 6.9 NW 4 7 2 4 1021.7 1021.7 0.0
22/12:30pm 20.0 18.2 5.3 38 7.2 SSW 4 9 2 5 1022.2 1022.2 0.0
22/12:00pm 19.3 17.2 5.7 41 6.7 WSW 6 9 3 5 1022.7 1022.7 0.0
22/11:30am 18.3 16.1 5.2 42 6.3 WSW 6 13 3 7 1023.2 1023.2 0.0
22/11:00am 17.8 15.6 5.4 44 6.0 SW 6 13 3 7 1023.7 1023.7 0.0
22/10:30am 16.9 14.4 4.9 45 5.7 SW 7 15 4 8 1024.1 1024.1 0.0
22/10:00am 15.8 13.3 4.8 48 5.2 SW 7 13 4 7 1024.2 1024.2 0.0
22/09:30am 14.9 12.7 5.1 52 4.6 SW 6 13 3 7 1024.4 1024.4 0.0
22/09:00am 13.2 10.9 4.9 57 3.8 SW 6 9 3 5 1024.1 1024.1 0.0
22/08:30am 11.6 9.3 4.6 62 3.2 SSW 6 9 3 5 1023.9 1023.9 0.0
22/08:00am 10.1 8.1 4.3 67 2.6 SW 4 7 2 4 1023.6 1023.6 0.0
22/07:30am 8.5 6.1 4.1 74 1.9 SW 6 9 3 5 1023.3 1023.3 0.0
22/07:00am 7.6 5.6 4.4 80 1.4 SSW 4 7 2 4 1023.0 1023.0 0.0
22/06:30am 7.6 5.2 4.4 80 1.4 SW 6 9 3 5 1022.8 1022.8 0.0
22/06:00am 7.6 5.6 4.4 80 1.4 SW 4 9 2 5 1022.3 1022.3 0.0
22/05:30am 7.8 5.4 4.4 79 1.5 WSW 6 9 3 5 1021.9 1021.9 0.0
22/05:00am 8.1 5.7 4.5 78 1.6 SW 6 11 3 6 1021.7 1021.7 0.0
22/04:30am 8.3 5.9 4.5 77 1.7 SSW 6 9 3 5 1021.6 1021.6 0.0
22/04:00am 8.6 6.7 4.8 77 1.7 SW 4 7 2 4 1021.5 1021.5 0.0
22/03:30am 9.0 6.7 4.8 75 1.9 SSW 6 11 3 6 1021.6 1021.6 0.0
22/03:00am 9.0 7.2 5.2 77 1.7 SW 4 9 2 5 1021.6 1021.6 0.0
22/02:30am 9.0 7.1 5.0 76 1.8 SW 4 6 2 3 1021.4 1021.4 0.0
22/02:00am 9.3 7.1 5.5 77 1.7 SW 6 11 3 6 1021.4 1021.4 0.0
22/01:30am 9.2 7.8 5.6 78 1.6 SW 2 6 1 3 1021.4 1021.4 0.0
22/01:00am - - - - - SW 6 9 3 5 1021.7 1021.7 0.0
22/12:30am 8.3 7.0 5.9 85 1.1 SSW 2 6 1 3 1021.8 1021.8 0.0
22/12:00am 8.3 7.4 5.9 85 1.1 CALM 0 2 0 1 1022.0 1022.0 0.0
 
Date/Time
EST
Temp
°C
App
Temp
°C
Dew
Point
°C
Rel
Hum
%
Delta-T
°C
Wind Press
QNH
hPa
Press
MSL
hPa
Rain since
9am
mm
Dir  Spd
km/h
Gust
km/h
Spd
kts
Gust
kts
21/11:30pm 8.7 7.3 5.3 79 1.5 SSE 2 4 1 2 1022.1 1022.1 0.0
21/11:00pm 9.3 7.7 4.7 73 2.0 WSW 2 4 1 2 1022.1 1022.1 0.0
21/10:30pm 8.8 7.6 4.4 74 1.9 CALM 0 0 0 0 1022.2 1022.2 0.0
21/10:00pm 9.5 8.2 4.3 70 2.3 CALM 0 0 0 0 1022.1 1022.1 0.0
21/09:30pm 9.8 8.6 4.4 69 2.4 CALM 0 0 0 0 1022.0 1022.0 0.0
21/09:00pm 10.2 9.1 5.0 70 2.3 CALM 0 2 0 1 1021.8 1021.8 0.0
21/08:30pm 10.7 9.7 5.7 71 2.3 CALM 0 0 0 0 1021.4 1021.4 0.0
21/08:00pm 10.9 9.9 5.7 70 2.4 CALM 0 0 0 0 1021.1 1021.1 0.0
21/07:30pm 11.9 11.0 6.0 67 2.8 CALM 0 2 0 1 1020.7 1020.7 0.0
21/07:00pm 12.1 11.1 5.5 64 3.1 CALM 0 0 0 0 1020.3 1020.3 0.0
21/06:30pm 13.0 11.9 5.2 59 3.6 CALM 0 0 0 0 1019.8 1019.8 0.0
21/06:00pm 14.5 13.0 4.8 52 4.5 E 2 6 1 3 1019.3 1019.3 0.0
21/05:30pm 15.6 13.2 5.2 50 4.9 E 7 13 4 7 1018.9 1018.9 0.0
21/05:00pm 16.8 13.9 4.5 44 5.8 ENE 9 15 5 8 1018.4 1018.4 0.0
21/04:30pm 18.1 15.9 3.6 38 6.8 ENE 4 9 2 5 1017.7 1017.7 0.0
21/04:00pm 18.4 15.7 3.5 37 7.0 NE 7 15 4 8 1017.2 1017.2 0.0
21/03:30pm 20.1 17.8 2.9 32 8.1 NW 4 7 2 4 1017.2 1017.2 0.0
21/03:00pm 21.4 18.4 0.6 25 9.4 WSW 6 13 3 7 1017.0 1017.0 0.0
21/02:30pm 20.8 17.4 -0.5 24 9.4 W 7 13 4 7 1017.1 1017.1 0.0
21/02:00pm 20.7 17.7 1.1 27 8.9 SW 6 13 3 7 1017.2 1017.2 0.0
21/01:30pm 20.1 16.5 0.5 27 8.7 W 9 20 5 11 1017.2 1017.2 0.0
21/01:00pm 19.6 16.6 1.1 29 8.3 SSW 6 9 3 5 1017.5 1017.5 0.0
21/12:30pm 18.6 15.5 1.2 31 7.8 SW 7 15 4 8 1018.0 1018.0 0.0
21/12:00pm 19.0 16.2 2.0 32 7.7 SSW 6 13 3 7 1018.7 1018.7 0.0
21/11:30am 17.6 14.5 1.2 33 7.3 SW 7 15 4 8 1019.1 1019.1 0.0
21/11:00am 17.2 14.5 3.5 40 6.3 WSW 7 15 4 8 1019.4 1019.4 0.0
21/10:30am 16.4 13.4 2.1 38 6.4 SW 7 19 4 10 1019.5 1019.5 0.0
21/10:00am 16.1 13.3 2.9 41 6.0 SSW 7 13 4 7 1019.6 1019.6 0.0
21/09:30am 15.4 12.6 2.2 41 5.9 SSW 6 11 3 6 1019.6 1019.6 0.0
21/09:00am 14.0 11.4 3.2 48 4.8 SW 6 9 3 5 1019.3 1019.3 0.0
21/08:30am 13.1 10.8 2.9 50 4.5 SW 4 9 2 5 1018.8 1018.8 0.0
21/08:00am 11.5 9.3 3.3 57 3.6 SW 4 7 2 4 1018.5 1018.5 0.0
21/07:30am 10.0 7.8 3.5 64 2.8 SW 4 9 2 5 1018.3 1018.3 0.0
21/07:00am 8.9 6.7 3.5 69 2.3 SW 4 9 2 5 1018.0 1018.0 0.0
21/06:30am 8.7 6.5 3.5 70 2.2 SSW 4 7 2 4 1017.7 1017.7 0.0
21/06:00am 8.8 6.3 4.0 72 2.1 SSW 6 7 3 4 1017.4 1017.4 0.0
21/05:30am 8.9 6.5 4.1 72 2.1 SW 6 9 3 5 1017.0 1017.0 0.0
21/05:00am - - - - - SW 2 4 1 2 1016.8 1016.8 0.0
21/04:30am - - - - - CALM 0 0 0 0 1016.4 1016.4 0.0
21/04:00am 9.3 7.1 3.5 67 2.5 S 4 6 2 3 1016.2 1016.2 0.0
21/03:30am 9.1 7.7 3.5 68 2.4 CALM 0 4 0 2 1015.9 1015.9 0.0
21/03:00am 9.6 7.4 3.4 65 2.7 SSW 4 4 2 2 1016.1 1016.1 0.0
21/02:30am 10.8 8.3 3.8 62 3.1 SSW 6 9 3 5 1016.0 1016.0 0.0
21/02:00am 10.5 8.3 3.3 61 3.1 S 4 6 2 3 1015.9 1015.9 0.0
21/01:30am 11.9 9.7 3.4 56 3.8 SSW 4 9 2 5 1016.2 1016.2 0.0
21/01:00am 12.6 10.3 3.0 52 4.2 SW 4 9 2 5 1016.1 1016.1 0.0
21/12:30am 13.2 10.4 3.3 51 4.4 WSW 7 15 4 8 1015.7 1015.7 0.0
21/12:00am 12.9 10.8 3.8 54 4.1 SW 4 13 2 7 1016.1 1016.1 0.0
 
Date/Time
EST
Temp
°C
App
Temp
°C
Dew
Point
°C
Rel
Hum
%
Delta-T
°C
Wind Press
QNH
hPa
Press
MSL
hPa
Rain since
9am
mm
Dir  Spd
km/h
Gust
km/h
Spd
kts
Gust
kts
20/11:30pm 13.1 11.0 4.0 54 4.1 SW 4 6 2 3 1016.4 1016.4 0.0
20/11:00pm 13.7 11.6 3.8 51 4.5 WSW 4 11 2 6 1016.5 1016.5 0.0
20/10:30pm 14.5 12.0 3.6 48 5.0 WSW 6 13 3 7 1016.4 1016.4 0.0
20/10:00pm 14.9 12.3 4.0 48 5.0 WSW 7 13 4 7 1016.4 1016.4 0.0
20/09:30pm 15.2 12.2 4.0 47 5.2 W 9 15 5 8 1016.5 1016.5 0.0
20/09:00pm 15.4 12.7 3.9 46 5.3 W 7 24 4 13 1016.2 1016.2 0.0
20/08:30pm 15.7 12.6 3.8 45 5.5 W 9 19 5 10 1016.1 1016.1 0.0
20/08:00pm 15.8 13.3 3.6 44 5.6 W 6 11 3 6 1015.9 1015.9 0.0
20/07:30pm 16.2 13.5 3.6 43 5.8 W 7 17 4 9 1015.5 1015.5 0.0
20/07:00pm 16.8 14.1 3.5 41 6.1 W 7 15 4 8 1015.4 1015.4 0.0
20/06:30pm 16.7 14.2 3.7 42 6.0 W 6 11 3 6 1015.1 1015.1 0.0
20/06:00pm 16.9 14.8 3.9 42 6.1 W 4 9 2 5 1014.9 1014.9 0.0
20/05:30pm 17.9 15.2 3.8 39 6.6 W 7 13 4 7 1014.6 1014.6 0.0
20/05:00pm 18.5 15.4 3.6 37 7.0 WNW 9 20 5 11 1014.4 1014.4 0.0
20/04:30pm 19.4 15.2 4.0 36 7.3 W 15 28 8 15 1014.3 1014.3 0.0
20/04:00pm 20.0 16.6 4.1 35 7.6 W 11 22 6 12 1014.2 1014.2 0.0
20/03:30pm 20.1 16.0 4.2 35 7.6 W 15 26 8 14 1014.2 1014.2 0.0
20/03:00pm 20.1 15.7 4.6 36 7.5 W 17 30 9 16 1014.2 1014.2 0.0
20/02:30pm 20.6 16.6 5.0 36 7.6 W 15 26 8 14 1014.4 1014.4 0.0
20/02:00pm 20.3 16.8 5.5 38 7.3 W 13 20 7 11 1014.6 1014.6 0.0
20/01:30pm 19.9 16.3 5.2 38 7.2 WNW 13 22 7 12 1014.8 1014.8 0.0
20/01:00pm 19.6 16.1 5.6 40 6.9 WNW 13 22 7 12 1015.0 1015.0 0.0
20/12:30pm 19.5 16.9 6.3 42 6.6 WNW 9 17 5 9 1015.2 1015.2 0.0
20/12:00pm 18.4 15.2 5.3 42 6.3 W 11 19 6 10 1015.6 1015.6 0.0
20/11:30am 18.2 15.2 5.8 44 6.1 W 11 19 6 10 1016.3 1016.3 0.0
20/11:00am 17.3 14.1 5.3 45 5.8 W 11 20 6 11 1016.9 1016.9 0.0
20/10:30am 17.0 14.3 5.6 47 5.5 W 9 19 5 10 1017.3 1017.3 0.0
20/10:00am 16.3 13.1 5.3 48 5.2 W 11 22 6 12 1017.5 1017.5 0.0
20/09:30am 15.8 12.3 5.4 50 5.0 W 13 22 7 12 1017.9 1017.9 0.0
20/09:00am 15.5 12.8 5.4 51 4.8 WSW 9 17 5 9 1017.7 1017.7 0.0
20/08:30am 14.7 11.5 5.2 53 4.5 WSW 11 17 6 9 1017.3 1017.3 0.0
20/08:00am 13.7 11.3 5.1 56 4.0 WSW 7 15 4 8 1017.1 1017.1 0.0
20/07:30am 12.7 10.5 5.1 60 3.5 WSW 6 9 3 5 1017.1 1017.1 0.0
20/07:00am 11.6 9.3 4.8 63 3.1 WSW 6 9 3 5 1016.8 1016.8 0.0
20/06:30am 11.7 9.2 4.7 62 3.2 WSW 7 13 4 7 1016.6 1016.6 0.0
20/06:00am 11.8 9.4 4.5 61 3.3 WSW 6 15 3 8 1016.4 1016.4 0.0
20/05:30am 11.7 8.8 4.7 62 3.2 W 9 17 5 9 1015.9 1015.9 0.0
20/05:00am 9.5 7.8 4.1 69 2.4 SW 2 4 1 2 1015.5 1015.5 0.0
20/04:30am 10.1 8.8 4.0 66 2.7 CALM 0 4 0 2 1014.7 1014.7 0.0
20/04:00am 11.6 9.6 4.3 61 3.3 WSW 4 9 2 5 1014.3 1014.3 0.0
20/03:30am 11.8 10.2 4.3 60 3.4 WNW 2 9 1 5 1014.1 1014.1 0.0
20/03:00am 12.2 9.8 4.2 58 3.6 WSW 6 13 3 7 1013.6 1013.6 0.0
20/02:30am 12.6 9.6 4.3 57 3.8 WSW 9 17 5 9 1013.6 1013.6 0.0
20/02:00am 12.8 10.2 4.3 56 3.9 WSW 7 15 4 8 1013.6 1013.6 0.0
20/01:30am 13.1 9.8 4.3 55 4.0 WSW 11 20 6 11 1013.7 1013.7 0.0
20/01:00am 12.8 9.8 4.3 56 3.9 WSW 9 17 5 9 1013.7 1013.7 0.0
20/12:30am 12.8 10.4 4.3 56 3.9 SW 6 15 3 8 1014.0 1014.0 0.0
20/12:00am 13.0 10.1 4.4 56 3.9 W 9 15 5 8 1014.2 1014.2 0.0
 
Date/Time
EST
Temp
°C
App
Temp
°C
Dew
Point
°C
Rel
Hum
%
Delta-T
°C
Wind Press
QNH
hPa
Press
MSL
hPa
Rain since
9am
mm
Dir  Spd
km/h
Gust
km/h
Spd
kts
Gust
kts
19/11:30pm 13.1 10.5 4.3 55 4.0 W 7 11 4 6 1014.3 1014.3 0.0
19/11:00pm 13.6 10.9 3.9 52 4.4 WSW 7 17 4 9 1014.5 1014.5 0.0
19/10:30pm 13.6 11.1 3.9 52 4.4 WSW 6 13 3 7 1014.7 1014.7 0.0
19/10:00pm 13.7 11.2 4.0 52 4.4 WSW 6 13 3 7 1014.5 1014.5 0.0
19/09:30pm 14.3 11.7 4.0 50 4.7 WSW 7 17 4 9 1014.4 1014.4 0.0

Other Formats:

Comma delimited format used in spreadsheet applications
http://www.bom.gov.au/fwo/IDQ60801/IDQ60801.94576.axf

JavaScript Object Notation format (JSON) in row-major order
http://www.bom.gov.au/fwo/IDQ60801/IDQ60801.94576.json